Time;durP1;ratioP1;P1;durP2;ratioP2;P2;SDS_P1;SDS_P2;PMS_P1;PMS_P2;Temp;Humidity;BMP_temperature;BMP_pressure;BME280_temperature;BME280_humidity;BME280_pressure;Samples;Min_cycle;Max_cycle;Signal;HPM_P1;HPM_P2
2022/04/18 00:01:52;;;;;;;17.60;9.70;;;8.00;88.60;;;;;;5032892;28;20091;-74
2022/04/18 00:04:18;;;;;;;17.97;10.57;;;7.90;88.90;;;;;;5028622;28;20061;-74
2022/04/18 00:06:45;;;;;;;14.03;9.93;;;7.90;89.10;;;;;;5011996;28;20048;-75
2022/04/18 00:09:11;;;;;;;17.30;11.13;;;7.90;89.30;;;;;;5001457;28;20052;-75
2022/04/18 00:11:37;;;;;;;15.30;10.23;;;7.80;89.80;;;;;;5031410;28;20049;-75
2022/04/18 00:14:03;;;;;;;14.63;9.57;;;7.80;90.20;;;;;;5030818;28;20120;-75
2022/04/18 00:16:29;;;;;;;19.63;9.97;;;7.70;90.50;;;;;;5049486;28;20127;-74
2022/04/18 00:18:55;;;;;;;15.43;10.40;;;7.70;90.50;;;;;;5035577;28;20463;-75
2022/04/18 00:21:21;;;;;;;14.97;10.00;;;7.60;90.80;;;;;;5031122;28;20144;-75
2022/04/18 00:23:48;;;;;;;14.70;10.23;;;7.60;91.20;;;;;;5027910;28;20417;-75
2022/04/18 00:26:14;;;;;;;18.57;10.37;;;7.60;91.40;;;;;;5019720;28;20044;-74
2022/04/18 00:28:40;;;;;;;15.87;10.20;;;7.50;91.40;;;;;;5033649;28;20057;-74
2022/04/18 00:31:06;;;;;;;15.07;9.80;;;7.50;91.60;;;;;;5019484;28;20400;-75
2022/04/18 00:33:32;;;;;;;16.13;10.67;;;7.40;91.70;;;;;;5018022;28;20055;-75
2022/04/18 00:35:58;;;;;;;15.67;10.00;;;7.40;92.00;;;;;;5019097;28;20120;-74
2022/04/18 00:38:23;;;;;;;19.13;10.97;;;7.40;92.20;;;;;;5016821;28;20135;-74
2022/04/18 00:40:51;;;;;;;16.70;10.50;;;7.30;92.40;;;;;;5032975;28;20051;-74
2022/04/18 00:43:16;;;;;;;17.13;9.97;;;7.30;92.40;;;;;;5030341;28;20536;-74
2022/04/18 00:45:42;;;;;;;16.17;10.07;;;7.30;92.50;;;;;;5050787;28;20140;-74
2022/04/18 00:48:08;;;;;;;18.93;10.83;;;7.20;92.60;;;;;;5018637;28;20041;-74
2022/04/18 00:50:35;;;;;;;15.37;10.17;;;7.20;92.80;;;;;;5019702;28;20397;-74
2022/04/18 00:53:02;;;;;;;15.97;9.97;;;7.20;92.90;;;;;;5001412;28;20076;-74
2022/04/18 00:55:32;;;;;;;16.27;10.37;;;7.20;93.00;;;;;;5019339;28;20386;-74
2022/04/18 00:58:00;;;;;;;16.67;10.07;;;7.20;93.20;;;;;;5009252;28;20048;-74
2022/04/18 01:00:26;;;;;;;16.10;10.67;;;7.10;93.10;;;;;;5019235;28;20052;-74
2022/04/18 01:02:52;;;;;;;15.67;10.23;;;7.10;93.20;;;;;;5016709;28;20044;-74
2022/04/18 01:05:18;;;;;;;14.70;9.77;;;7.10;93.30;;;;;;5018708;28;20041;-74
2022/04/18 01:07:44;;;;;;;16.63;10.47;;;7.10;93.30;;;;;;5034528;28;20069;-75
2022/04/18 01:10:10;;;;;;;15.30;9.53;;;7.10;93.60;;;;;;5017831;28;20559;-74
2022/04/18 01:12:36;;;;;;;14.47;10.13;;;7.20;93.40;;;;;;5031614;28;20049;-74
2022/04/18 01:15:16;;;;;;;17.03;9.97;;;7.20;93.30;;;;;;5033019;28;20047;-75
2022/04/18 01:17:49;;;;;;;16.17;9.70;;;7.20;93.10;;;;;;5021600;28;20159;-74
2022/04/18 01:20:35;;;;;;;16.27;10.43;;;7.30;93.30;;;;;;5017685;28;20032;-74
2022/04/18 01:23:38;;;;;;;14.15;9.40;;;7.30;93.10;;;;;;5013389;28;20051;-74
2022/04/18 01:28:58;;;;;;;15.15;9.88;;;7.20;93.30;;;;;;5010020;28;20120;-73
2022/04/18 01:31:25;;;;;;;14.70;9.80;;;7.20;93.30;;;;;;5014859;28;20094;-73
2022/04/18 01:33:50;;;;;;;15.37;10.03;;;7.20;93.40;;;;;;5014093;28;20111;-73
2022/04/18 01:36:16;;;;;;;16.37;9.50;;;7.20;93.60;;;;;;5018270;28;20043;-73
2022/04/18 01:38:44;;;;;;;14.40;10.10;;;7.20;93.90;;;;;;5016008;28;20090;-73
2022/04/18 01:41:09;;;;;;;20.60;10.80;;;7.20;93.70;;;;;;5008503;28;20056;-73
2022/04/18 01:43:35;;;;;;;13.87;9.50;;;7.20;93.50;;;;;;5016450;28;20416;-73
2022/04/18 01:46:01;;;;;;;23.60;10.63;;;7.20;93.50;;;;;;5017116;28;20417;-73
2022/04/18 01:48:28;;;;;;;16.60;9.47;;;7.10;93.40;;;;;;5018191;28;20052;-73
2022/04/18 01:50:54;;;;;;;14.97;9.73;;;7.10;93.50;;;;;;5016437;28;20049;-73
2022/04/18 01:53:21;;;;;;;14.70;10.17;;;7.10;93.40;;;;;;5050056;28;20041;-73
2022/04/18 01:55:49;;;;;;;16.07;9.80;;;7.10;93.70;;;;;;4996840;28;20125;-73
2022/04/18 01:58:14;;;;;;;16.80;9.67;;;7.10;93.60;;;;;;5000921;28;20048;-73
2022/04/18 02:00:40;;;;;;;15.17;9.87;;;7.10;93.30;;;;;;5016136;28;20040;-73
2022/04/18 02:03:06;;;;;;;14.00;9.30;;;7.10;93.30;;;;;;5000796;28;20064;-73
2022/04/18 02:05:32;;;;;;;15.03;9.40;;;7.10;93.20;;;;;;5050706;28;20081;-73
2022/04/18 02:07:58;;;;;;;16.20;9.67;;;7.10;93.30;;;;;;5012019;28;20091;-73
2022/04/18 02:10:24;;;;;;;13.90;9.40;;;7.10;93.20;;;;;;5017994;28;20551;-73
2022/04/18 02:12:51;;;;;;;14.97;10.00;;;7.00;93.20;;;;;;5011449;28;20044;-73
2022/04/18 02:15:19;;;;;;;15.77;9.37;;;6.90;93.50;;;;;;5033127;28;20041;-73
2022/04/18 02:17:52;;;;;;;13.17;9.57;;;6.90;93.70;;;;;;5014809;28;20049;-73
2022/04/18 02:20:18;;;;;;;14.40;9.50;;;6.80;94.00;;;;;;5017054;28;20041;-73
2022/04/18 02:22:44;;;;;;;15.10;9.87;;;6.80;94.10;;;;;;5014579;28;20040;-73
2022/04/18 02:25:10;;;;;;;15.57;9.60;;;6.80;94.00;;;;;;5028912;28;20045;-73
2022/04/18 02:27:36;;;;;;;16.90;9.77;;;6.70;93.90;;;;;;5016538;28;20456;-73
2022/04/18 02:30:05;;;;;;;14.27;9.70;;;6.70;94.00;;;;;;4999621;28;20049;-73
2022/04/18 02:32:50;;;;;;;14.33;9.80;;;6.70;94.00;;;;;;4999885;28;20045;-73
2022/04/18 02:35:19;;;;;;;15.37;10.00;;;6.70;94.10;;;;;;5000128;28;20119;-73
2022/04/18 02:37:46;;;;;;;13.03;9.33;;;6.60;94.30;;;;;;5014252;28;20060;-73
2022/04/18 02:40:15;;;;;;;14.93;9.43;;;6.50;94.40;;;;;;5030811;28;20057;-73
2022/04/18 02:42:42;;;;;;;17.40;9.87;;;6.40;94.70;;;;;;5013661;28;20041;-73
2022/04/18 02:45:12;;;;;;;17.57;10.40;;;6.40;94.90;;;;;;5017484;28;20055;-73
2022/04/18 02:48:01;;;;;;;15.40;10.17;;;6.40;94.90;;;;;;4998872;28;20053;-73
2022/04/18 02:50:28;;;;;;;17.10;10.50;;;6.30;95.10;;;;;;5011643;28;20064;-73
2022/04/18 02:52:54;;;;;;;17.27;10.50;;;6.30;95.30;;;;;;4999105;28;20124;-73
2022/04/18 02:55:30;;;;;;;16.37;10.33;;;6.20;95.30;;;;;;4999141;28;20052;-73
2022/04/18 02:57:56;;;;;;;17.40;10.50;;;6.20;95.30;;;;;;5032798;28;20124;-73
2022/04/18 03:00:25;;;;;;;20.73;10.50;;;6.20;95.40;;;;;;5014997;28;20037;-73
2022/04/18 03:02:51;;;;;;;17.87;10.30;;;6.20;95.40;;;;;;5015734;28;20049;-73
2022/04/18 03:05:17;;;;;;;17.73;9.90;;;6.30;95.40;;;;;;5008997;28;20091;-73
2022/04/18 03:07:43;;;;;;;16.70;9.83;;;6.30;95.30;;;;;;5032107;28;20091;-73
2022/04/18 03:10:13;;;;;;;15.43;9.53;;;6.30;95.50;;;;;;5011227;28;20496;-73
2022/04/18 03:12:39;;;;;;;17.07;10.83;;;6.30;95.50;;;;;;5015108;28;20168;-73
2022/04/18 03:15:07;;;;;;;15.67;9.40;;;6.20;95.60;;;;;;5015902;28;20052;-73
2022/04/18 03:17:34;;;;;;;18.23;9.27;;;6.30;95.60;;;;;;5011300;28;20076;-73
2022/04/18 03:20:01;;;;;;;19.33;9.90;;;6.30;95.50;;;;;;5011005;28;20049;-73
2022/04/18 03:22:27;;;;;;;14.20;9.70;;;6.30;95.50;;;;;;4997979;28;20060;-73
2022/04/18 03:25:00;;;;;;;15.73;9.87;;;6.30;95.60;;;;;;5016605;28;20056;-73
2022/04/18 03:27:27;;;;;;;15.63;10.33;;;6.30;95.50;;;;;;5014445;28;20530;-73
2022/04/18 03:29:52;;;;;;;18.33;10.63;;;6.30;95.50;;;;;;5016998;28;20053;-73
2022/04/18 03:32:24;;;;;;;20.17;10.33;;;6.30;95.60;;;;;;5012278;28;20699;-73
2022/04/18 03:34:51;;;;;;;15.23;9.63;;;6.30;95.80;;;;;;4999855;28;20509;-73
2022/04/18 03:40:02;;;;;;;16.00;9.47;;;6.10;95.90;;;;;;5016443;28;20033;-73
2022/04/18 03:42:29;;;;;;;15.23;9.93;;;6.10;96.00;;;;;;4993771;28;20050;-73
2022/04/18 03:44:59;;;;;;;15.30;9.97;;;6.00;96.10;;;;;;5015316;28;20448;-73
2022/04/18 03:47:26;;;;;;;13.43;9.50;;;6.00;96.50;;;;;;5015253;28;20044;-73
2022/04/18 03:49:55;;;;;;;16.97;9.77;;;5.90;96.70;;;;;;5030441;28;20474;-73
2022/04/18 03:52:21;;;;;;;17.13;9.77;;;5.90;96.70;;;;;;5000602;28;20057;-73
2022/04/18 03:54:46;;;;;;;16.60;10.10;;;5.90;96.70;;;;;;5047380;28;20037;-73
2022/04/18 03:57:17;;;;;;;17.50;9.77;;;5.90;96.90;;;;;;5019753;28;20041;-73
2022/04/18 03:59:49;;;;;;;17.47;10.40;;;5.90;96.90;;;;;;5001136;28;20080;-73
2022/04/18 04:02:17;;;;;;;15.60;9.27;;;5.90;96.80;;;;;;5014578;28;20060;-73
2022/04/18 04:04:48;;;;;;;17.83;9.53;;;5.90;97.00;;;;;;5020615;28;20475;-73
2022/04/18 04:07:15;;;;;;;16.77;10.07;;;6.00;97.00;;;;;;5012591;28;20116;-73
2022/04/18 04:09:43;;;;;;;17.77;9.87;;;6.10;97.00;;;;;;5017014;28;20055;-73
2022/04/18 04:12:11;;;;;;;16.67;10.23;;;6.00;96.90;;;;;;5045437;28;20065;-73
2022/04/18 04:14:55;;;;;;;14.90;9.77;;;6.10;96.80;;;;;;5018622;28;20037;-73
2022/04/18 04:17:23;;;;;;;15.77;10.37;;;6.10;96.90;;;;;;5018728;28;20029;-73
2022/04/18 04:19:50;;;;;;;15.70;9.70;;;6.00;97.20;;;;;;5018464;28;20083;-73
2022/04/18 04:22:29;;;;;;;16.47;10.33;;;5.90;97.20;;;;;;5014377;28;20049;-73
2022/04/18 04:25:04;;;;;;;15.87;10.10;;;5.90;97.30;;;;;;5018785;28;21361;-73
2022/04/18 04:27:30;;;;;;;15.93;9.10;;;5.80;97.50;;;;;;5016002;28;20053;-73
2022/04/18 04:29:57;;;;;;;18.37;9.93;;;5.80;97.60;;;;;;5017289;28;20037;-73
2022/04/18 04:32:31;;;;;;;15.97;9.67;;;5.80;97.60;;;;;;5034786;28;20480;-72
2022/04/18 04:34:58;;;;;;;13.70;9.03;;;5.80;97.80;;;;;;5018412;28;20037;-72
2022/04/18 04:37:30;;;;;;;14.33;9.73;;;5.80;97.90;;;;;;5051282;28;20041;-73
2022/04/18 04:40:13;;;;;;;16.13;9.52;;;5.80;98.00;;;;;;5019179;28;20056;-73
2022/04/18 04:42:39;;;;;;;14.83;9.33;;;5.80;98.00;;;;;;5001918;28;20056;-73
2022/04/18 04:45:05;;;;;;;14.73;9.00;;;5.80;98.00;;;;;;5046421;28;20037;-73
2022/04/18 04:47:51;;;;;;;13.83;9.60;;;5.80;97.90;;;;;;5015233;28;20073;-73
2022/04/18 04:50:17;;;;;;;14.50;9.40;;;5.80;98.00;;;;;;5013057;28;20524;-73
2022/04/18 04:52:52;;;;;;;14.30;9.23;;;5.80;98.00;;;;;;5027044;28;20056;-73
2022/04/18 04:55:20;;;;;;;14.73;9.33;;;5.80;97.90;;;;;;5014838;28;20041;-73
2022/04/18 04:57:46;;;;;;;13.87;9.10;;;5.80;98.10;;;;;;5040461;28;20037;-73
2022/04/18 05:00:29;;;;;;;14.17;9.40;;;5.80;98.30;;;;;;5004293;28;20433;-73
2022/04/18 05:03:09;;;;;;;13.23;9.23;;;5.80;98.40;;;;;;5008179;28;20064;-73
2022/04/18 05:05:35;;;;;;;18.03;9.43;;;5.80;98.60;;;;;;4997422;28;20049;-73
2022/04/18 05:08:05;;;;;;;16.10;9.40;;;5.80;98.60;;;;;;5045249;28;20049;-72
2022/04/18 05:10:32;;;;;;;17.00;9.23;;;5.90;98.50;;;;;;5015943;28;20060;-73
2022/04/18 05:13:01;;;;;;;14.00;8.57;;;6.00;98.30;;;;;;5018087;28;20400;-73
2022/04/18 05:15:27;;;;;;;14.47;8.67;;;6.00;98.10;;;;;;5016482;28;20095;-73
2022/04/18 05:18:13;;;;;;;12.30;8.70;;;6.10;97.90;;;;;;5016155;28;20052;-73
2022/04/18 05:20:39;;;;;;;16.03;9.50;;;6.20;97.70;;;;;;5033552;28;20041;-73
2022/04/18 05:23:06;;;;;;;14.30;9.17;;;6.30;97.70;;;;;;5034182;28;20041;-73
2022/04/18 05:25:32;;;;;;;13.13;8.50;;;6.40;97.60;;;;;;5016747;28;20040;-73
2022/04/18 05:27:58;;;;;;;13.47;8.23;;;6.50;97.40;;;;;;5017221;28;20075;-73
2022/04/18 05:30:36;;;;;;;14.43;8.77;;;6.70;97.50;;;;;;5012079;28;20448;-73
2022/04/18 05:33:02;;;;;;;12.63;8.70;;;7.00;97.20;;;;;;5014688;28;20052;-73
2022/04/18 05:35:29;;;;;;;15.30;8.43;;;7.30;96.80;;;;;;5017541;28;20044;-73
2022/04/18 05:37:56;;;;;;;13.50;8.53;;;7.60;96.50;;;;;;5016667;28;20049;-72
2022/04/18 05:40:41;;;;;;;13.37;9.17;;;7.80;95.70;;;;;;5004574;28;20044;-73
2022/04/18 05:43:08;;;;;;;18.77;8.97;;;8.10;95.20;;;;;;5015303;28;20065;-73
2022/04/18 05:45:34;;;;;;;15.87;8.73;;;8.30;94.80;;;;;;5031015;28;20076;-72
2022/04/18 05:48:12;;;;;;;11.87;7.80;;;8.40;94.60;;;;;;5017397;28;20407;-73
2022/04/18 05:50:45;;;;;;;14.93;8.97;;;8.40;94.30;;;;;;5015893;28;20041;-73
2022/04/18 05:53:23;;;;;;;14.37;9.07;;;8.30;94.20;;;;;;5017333;28;20088;-73
2022/04/18 05:56:05;;;;;;;17.53;9.40;;;8.30;94.30;;;;;;5027657;28;20037;-73
2022/04/18 05:58:49;;;;;;;14.60;8.57;;;8.20;94.50;;;;;;4988261;28;20068;-73
2022/04/18 06:01:35;;;;;;;17.08;9.00;;;8.20;94.60;;;;;;5026012;28;20462;-73
2022/04/18 06:04:06;;;;;;;13.13;8.60;;;8.20;94.50;;;;;;5017130;28;20037;-73
2022/04/18 06:06:32;;;;;;;13.47;9.20;;;8.30;94.40;;;;;;5011760;28;20545;-73
2022/04/18 06:08:58;;;;;;;12.60;8.50;;;8.40;94.30;;;;;;5015601;28;20128;-73
2022/04/18 06:11:29;;;;;;;13.13;8.47;;;8.60;93.90;;;;;;5018104;28;20128;-73
2022/04/18 06:14:08;;;;;;;16.87;8.90;;;8.80;93.80;;;;;;5001170;28;20044;-73
2022/04/18 06:16:37;;;;;;;13.17;8.73;;;9.10;93.50;;;;;;5000406;28;20397;-73
2022/04/18 06:19:03;;;;;;;12.67;8.70;;;9.70;93.60;;;;;;5017401;28;20040;-73
2022/04/18 06:21:29;;;;;;;11.47;8.43;;;10.40;93.10;;;;;;5007212;28;20049;-74
2022/04/18 06:23:56;;;;;;;16.67;9.33;;;11.00;91.60;;;;;;5009998;28;20056;-73
2022/04/18 06:26:40;;;;;;;10.63;6.93;;;11.60;91.00;;;;;;5016146;28;20120;-74
2022/04/18 06:29:06;;;;;;;12.47;8.27;;;12.30;89.50;;;;;;5015367;28;20044;-74
2022/04/18 06:31:33;;;;;;;13.53;8.83;;;13.00;86.00;;;;;;5017484;28;20072;-74
2022/04/18 06:34:02;;;;;;;10.43;7.57;;;13.50;83.30;;;;;;5016528;28;20045;-74
2022/04/18 06:36:28;;;;;;;12.53;8.50;;;14.00;80.40;;;;;;5022806;28;20067;-74
2022/04/18 06:39:20;;;;;;;12.53;8.00;;;14.50;79.20;;;;;;5012917;28;20052;-74
2022/04/18 06:41:49;;;;;;;13.90;8.63;;;14.70;76.50;;;;;;4997960;28;20045;-74
2022/04/18 06:44:19;;;;;;;10.73;7.97;;;15.30;74.40;;;;;;5031598;28;20053;-75
2022/04/18 06:46:53;;;;;;;12.55;8.57;;;15.80;67.00;;;;;;5030021;28;20033;-74
2022/04/18 06:49:39;;;;;;;14.30;8.90;;;16.50;66.30;;;;;;5028856;28;20053;-74
2022/04/18 06:52:35;;;;;;;9.83;7.47;;;17.10;63.80;;;;;;5024304;28;20051;-75
2022/04/18 06:55:22;;;;;;;13.85;8.60;;;17.70;62.30;;;;;;5029908;28;20512;-74
2022/04/18 06:57:50;;;;;;;11.80;8.27;;;17.90;59.50;;;;;;5012047;28;20124;-75
2022/04/18 07:00:16;;;;;;;11.10;8.23;;;17.70;57.70;;;;;;5012832;28;20088;-74
2022/04/18 07:02:45;;;;;;;12.13;8.40;;;17.60;57.10;;;;;;5042871;28;20037;-74
2022/04/18 07:05:11;;;;;;;11.33;7.60;;;17.20;55.90;;;;;;5028016;28;20048;-74
2022/04/18 07:07:37;;;;;;;12.20;8.17;;;16.80;56.30;;;;;;5026996;28;20037;-74
2022/04/18 07:10:04;;;;;;;12.03;8.40;;;16.50;56.50;;;;;;4987603;28;20049;-75
2022/04/18 07:12:30;;;;;;;12.80;8.47;;;16.00;56.70;;;;;;5043824;28;20045;-75
2022/04/18 07:15:00;;;;;;;13.93;8.57;;;15.50;56.90;;;;;;5011017;28;20106;-75
2022/04/18 07:17:27;;;;;;;12.07;8.70;;;15.00;57.80;;;;;;5019076;28;20063;-74
2022/04/18 07:19:55;;;;;;;11.40;8.40;;;14.40;58.40;;;;;;4994396;28;20048;-74
2022/04/18 07:22:23;;;;;;;12.90;8.43;;;13.90;59.40;;;;;;5001731;28;20103;-74
2022/04/18 07:24:52;;;;;;;11.37;8.63;;;13.70;60.90;;;;;;5014924;28;20538;-74
2022/04/18 07:27:20;;;;;;;14.17;8.90;;;13.70;61.50;;;;;;5031356;28;20460;-73
2022/04/18 07:29:55;;;;;;;13.53;8.83;;;13.40;61.50;;;;;;5013264;28;20041;-75
2022/04/18 07:32:22;;;;;;;12.80;8.47;;;13.10;61.90;;;;;;5002432;28;20048;-75
2022/04/18 07:34:50;;;;;;;13.93;9.20;;;12.90;63.40;;;;;;5020273;28;20052;-75
2022/04/18 07:37:25;;;;;;;11.03;8.40;;;13.00;64.20;;;;;;4997819;28;20083;-75
2022/04/18 07:39:51;;;;;;;12.73;8.50;;;13.00;64.90;;;;;;5027859;28;20068;-75
2022/04/18 07:42:17;;;;;;;15.30;9.20;;;13.00;64.90;;;;;;5011028;28;20052;-75
2022/04/18 07:44:42;;;;;;;12.63;9.00;;;12.90;65.20;;;;;;5022439;28;20033;-75
2022/04/18 07:47:08;;;;;;;13.40;9.20;;;12.90;65.60;;;;;;5009332;28;20044;-75
2022/04/18 07:49:37;;;;;;;11.87;8.27;;;12.90;66.40;;;;;;5011398;28;20132;-75
2022/04/18 07:52:04;;;;;;;12.20;8.57;;;12.90;66.90;;;;;;4997549;28;20053;-74
2022/04/18 07:54:40;;;;;;;14.87;8.67;;;13.00;68.30;;;;;;5010386;28;20045;-76
2022/04/18 07:57:06;;;;;;;11.13;7.43;;;13.00;66.50;;;;;;5010499;28;20685;-75
2022/04/18 07:59:44;;;;;;;12.17;7.10;;;13.10;66.10;;;;;;4996989;28;20130;-75
2022/04/18 08:02:10;;;;;;;11.00;7.23;;;13.20;64.80;;;;;;5021500;28;20414;-76
2022/04/18 08:04:56;;;;;;;11.68;7.22;;;13.20;64.30;;;;;;5027172;28;20044;-75
2022/04/18 08:07:32;;;;;;;12.63;7.30;;;13.20;64.90;;;;;;5012117;28;20148;-75
2022/04/18 08:09:58;;;;;;;11.70;6.90;;;13.20;64.80;;;;;;5011525;28;20120;-75
2022/04/18 08:12:24;;;;;;;11.70;7.73;;;13.30;65.30;;;;;;5012154;28;20037;-76
2022/04/18 08:15:10;;;;;;;11.90;7.20;;;13.40;66.50;;;;;;5027015;28;20479;-75
2022/04/18 08:17:36;;;;;;;10.63;7.00;;;13.50;67.60;;;;;;5013308;28;20041;-75
2022/04/18 08:20:06;;;;;;;11.03;6.90;;;13.60;66.50;;;;;;5012340;28;20041;-75
2022/04/18 08:22:31;;;;;;;11.17;7.13;;;13.70;65.10;;;;;;5011617;28;20139;-76
2022/04/18 08:25:32;;;;;;;8.30;6.43;;;13.70;65.10;;;;;;5029280;28;20219;-75
2022/04/18 08:28:28;;;;;;;10.40;7.07;;;13.80;64.70;;;;;;5017266;28;20091;-75
2022/04/18 08:30:53;;;;;;;11.83;7.07;;;13.90;64.20;;;;;;5010436;28;20037;-76
2022/04/18 08:33:30;;;;;;;11.57;7.13;;;14.20;64.40;;;;;;5027629;28;20045;-76
2022/04/18 08:35:58;;;;;;;9.80;6.97;;;14.50;64.60;;;;;;5012296;28;20090;-76
2022/04/18 08:38:24;;;;;;;9.40;6.63;;;14.90;63.70;;;;;;5011590;28;20045;-76
2022/04/18 08:41:20;;;;;;;11.80;6.97;;;15.20;65.70;;;;;;5022517;28;20045;-76
2022/04/18 08:43:46;;;;;;;7.80;6.20;;;15.60;62.50;;;;;;5028086;28;20111;-76
2022/04/18 08:46:12;;;;;;;8.83;7.03;;;16.00;61.00;;;;;;4992768;28;20469;-76
2022/04/18 08:54:13;;;;;;;11.37;6.63;;;16.90;56.00;;;;;;5041382;28;20041;-76
2022/04/18 08:56:39;;;;;;;9.57;6.53;;;17.10;57.00;;;;;;4998384;28;20493;-75
2022/04/18 08:59:05;;;;;;;10.17;7.13;;;17.30;56.20;;;;;;5012197;28;20048;-76
2022/04/18 09:01:30;;;;;;;10.87;7.17;;;17.60;57.40;;;;;;5016572;28;20516;-76
2022/04/18 09:04:11;;;;;;;12.00;6.90;;;17.80;56.90;;;;;;5023490;28;20059;-76
2022/04/18 09:06:42;;;;;;;9.23;6.30;;;18.10;56.70;;;;;;5048410;28;20045;-77
2022/04/18 09:09:25;;;;;;;10.87;6.43;;;18.30;56.10;;;;;;5062105;28;20119;-75
2022/04/18 09:11:52;;;;;;;11.00;7.13;;;18.50;55.00;;;;;;5015832;28;20049;-76
2022/04/18 09:14:21;;;;;;;8.57;6.80;;;18.50;53.60;;;;;;5014057;28;20048;-76
2022/04/18 09:16:49;;;;;;;11.20;6.93;;;18.40;55.20;;;;;;5016824;28;20745;-75
2022/04/18 09:19:38;;;;;;;10.80;6.83;;;18.50;55.40;;;;;;4996107;28;20056;-76
2022/04/18 09:22:08;;;;;;;9.10;6.10;;;18.40;53.80;;;;;;5000254;28;20045;-75
2022/04/18 09:24:46;;;;;;;9.73;6.70;;;18.50;53.00;;;;;;5016182;28;20049;-76
2022/04/18 09:27:25;;;;;;;12.83;7.13;;;18.70;53.80;;;;;;5011377;28;20037;-76
2022/04/18 09:30:01;;;;;;;10.97;6.53;;;18.70;50.80;;;;;;5012713;28;20040;-76
2022/04/18 09:32:28;;;;;;;13.13;6.73;;;19.00;53.90;;;;;;5015091;28;20041;-76
2022/04/18 09:35:27;;;;;;;11.57;6.97;;;19.70;51.00;;;;;;4999641;28;20105;-76
2022/04/18 09:38:04;;;;;;;9.93;7.00;;;20.40;52.00;;;;;;5025575;28;20109;-76
2022/04/18 09:40:50;;;;;;;9.98;6.97;;;21.20;50.40;;;;;;5035406;28;20420;-74
2022/04/18 09:43:21;;;;;;;10.57;7.00;;;21.90;46.40;;;;;;5023459;28;20128;-76
2022/04/18 09:45:48;;;;;;;10.90;6.50;;;22.50;48.40;;;;;;5005625;28;20756;-76
2022/04/18 09:48:16;;;;;;;8.93;6.67;;;23.00;46.30;;;;;;5007312;28;20040;-76
2022/04/18 09:50:59;;;;;;;9.63;6.83;;;23.30;42.70;;;;;;5039048;28;20032;-76
2022/04/18 09:53:32;;;;;;;10.63;6.87;;;23.80;46.90;;;;;;5022461;28;20052;-77
2022/04/18 09:55:58;;;;;;;10.67;7.03;;;24.40;45.70;;;;;;5035025;28;20091;-76
2022/04/18 09:58:24;;;;;;;10.23;6.43;;;25.00;42.10;;;;;;5028508;28;20037;-76
2022/04/18 10:00:50;;;;;;;12.93;6.77;;;25.20;39.30;;;;;;5021436;28;20047;-77
2022/04/18 10:03:18;;;;;;;8.80;6.20;;;25.00;38.50;;;;;;5033724;28;20040;-77
2022/04/18 10:05:44;;;;;;;7.60;5.97;;;25.10;39.50;;;;;;5032954;28;20393;-76
2022/04/18 10:08:11;;;;;;;8.47;6.07;;;25.20;39.90;;;;;;5035799;28;20254;-77
2022/04/18 10:10:41;;;;;;;8.73;6.07;;;25.50;38.20;;;;;;5012308;28;20044;-76
2022/04/18 10:13:08;;;;;;;8.50;5.27;;;25.60;36.40;;;;;;5025284;28;20408;-75
2022/04/18 10:15:34;;;;;;;7.53;5.40;;;25.60;36.00;;;;;;5019329;28;20060;-76
2022/04/18 10:18:03;;;;;;;8.43;6.23;;;25.60;35.00;;;;;;5011767;28;20041;-77
2022/04/18 10:20:42;;;;;;;8.83;5.97;;;25.40;36.10;;;;;;5033210;28;20115;-78
2022/04/18 10:23:23;;;;;;;9.97;6.10;;;25.60;36.50;;;;;;5013768;28;20045;-77
2022/04/18 10:26:26;;;;;;;9.23;5.83;;;25.80;36.70;;;;;;5030275;28;20103;-76
2022/04/18 10:28:54;;;;;;;7.43;5.77;;;26.10;36.70;;;;;;5028881;28;20119;-76
2022/04/18 10:31:24;;;;;;;7.90;5.27;;;26.00;35.80;;;;;;5027315;28;20048;-76
2022/04/18 10:33:50;;;;;;;6.83;5.83;;;25.70;33.10;;;;;;5033102;28;20087;-76
2022/04/18 10:36:24;;;;;;;10.40;5.53;;;25.50;34.50;;;;;;5041850;28;20037;-76
2022/04/18 10:38:50;;;;;;;9.77;5.43;;;25.80;36.30;;;;;;5040088;28;20055;-76
2022/04/18 10:41:34;;;;;;;6.77;5.47;;;26.20;34.30;;;;;;5010577;28;20045;-76
2022/04/18 10:44:03;;;;;;;6.80;5.77;;;26.30;35.00;;;;;;5013982;28;20048;-76
2022/04/18 10:46:29;;;;;;;8.27;4.17;;;26.30;33.70;;;;;;5011018;28;20033;-76
2022/04/18 10:48:56;;;;;;;5.45;3.95;;;26.30;30.60;;;;;;5032950;28;20040;-76
2022/04/18 10:51:30;;;;;;;6.17;4.10;;;26.20;30.80;;;;;;5035162;28;20048;-77
2022/04/18 10:54:21;;;;;;;7.07;4.57;;;25.90;31.60;;;;;;5013896;28;20045;-76
2022/04/18 10:56:50;;;;;;;5.33;4.20;;;25.80;34.70;;;;;;4998745;28;20155;-75
2022/04/18 10:59:17;;;;;;;4.10;3.33;;;25.80;33.50;;;;;;5030188;28;20075;-76
2022/04/18 11:01:43;;;;;;;6.97;3.90;;;25.70;34.20;;;;;;5028967;28;20452;-76
2022/04/18 11:04:13;;;;;;;6.73;4.20;;;25.70;33.90;;;;;;5032042;28;20045;-77
2022/04/18 11:07:01;;;;;;;5.00;3.73;;;25.70;32.20;;;;;;5026811;28;20044;-77
2022/04/18 11:09:27;;;;;;;8.57;4.60;;;25.40;28.50;;;;;;5006296;28;20131;-77
2022/04/18 11:12:08;;;;;;;6.27;4.60;;;25.00;29.40;;;;;;5014683;28;20095;-76
2022/04/18 11:14:51;;;;;;;6.00;3.77;;;24.80;30.10;;;;;;5027134;28;20041;-76
2022/04/18 11:17:26;;;;;;;5.50;4.43;;;24.60;32.30;;;;;;5011984;28;20120;-76
2022/04/18 11:19:52;;;;;;;6.73;4.07;;;24.40;30.90;;;;;;5014083;28;20057;-76
2022/04/18 11:22:20;;;;;;;4.73;4.00;;;24.20;32.60;;;;;;5027675;28;20041;-76
2022/04/18 11:25:00;;;;;;;6.50;3.60;;;24.00;31.20;;;;;;5030587;28;20037;-76
2022/04/18 11:27:37;;;;;;;4.67;3.90;;;23.50;32.60;;;;;;5029580;28;20033;-77
2022/04/18 11:30:13;;;;;;;5.43;3.83;;;23.30;31.40;;;;;;5028325;28;20045;-76
2022/04/18 11:32:40;;;;;;;4.20;3.60;;;23.40;32.60;;;;;;5030521;28;20475;-77
2022/04/18 11:35:07;;;;;;;4.93;3.77;;;23.80;34.50;;;;;;5029254;28;20061;-77
2022/04/18 11:37:35;;;;;;;6.23;4.90;;;24.30;33.90;;;;;;5014127;28;20128;-76
2022/04/18 11:40:02;;;;;;;6.43;4.53;;;24.60;31.40;;;;;;4998060;28;20041;-76
2022/04/18 11:42:30;;;;;;;6.60;4.27;;;24.80;34.80;;;;;;5032219;28;20455;-76
2022/04/18 11:44:58;;;;;;;6.27;3.60;;;25.20;33.40;;;;;;5010326;28;20095;-76
2022/04/18 11:47:27;;;;;;;5.03;3.23;;;25.20;29.80;;;;;;5031874;28;20033;-76
2022/04/18 11:49:58;;;;;;;5.30;3.67;;;24.50;30.80;;;;;;5009580;28;20041;-77
2022/04/18 11:52:26;;;;;;;4.57;3.63;;;24.10;31.40;;;;;;5031677;28;20037;-77
2022/04/18 11:55:00;;;;;;;5.37;3.77;;;24.00;32.00;;;;;;4997546;28;20041;-77
2022/04/18 11:57:27;;;;;;;4.97;3.70;;;24.10;31.80;;;;;;5007679;28;20045;-77
2022/04/18 11:59:54;;;;;;;5.90;3.80;;;24.10;31.80;;;;;;5024472;28;20045;-76
2022/04/18 12:08:04;;;;;;;5.83;4.00;;;23.60;30.30;;;;;;5028425;28;20045;-77
2022/04/18 12:10:32;;;;;;;5.00;4.10;;;23.40;30.20;;;;;;5020809;28;20053;-78
2022/04/18 12:12:59;;;;;;;5.53;4.17;;;23.70;34.50;;;;;;5013158;28;20068;-77
2022/04/18 12:15:27;;;;;;;7.03;4.30;;;23.90;34.70;;;;;;5015482;28;20052;-77
2022/04/18 12:17:56;;;;;;;5.37;4.10;;;24.10;35.20;;;;;;5013718;28;20036;-77
2022/04/18 12:20:24;;;;;;;6.47;4.47;;;24.30;33.90;;;;;;5051802;28;20052;-77
2022/04/18 12:22:52;;;;;;;6.33;3.77;;;24.30;31.90;;;;;;5042113;28;20582;-75
2022/04/18 12:25:20;;;;;;;5.90;3.97;;;24.50;34.00;;;;;;5001334;28;20040;-75
2022/04/18 12:27:45;;;;;;;6.17;4.33;;;24.40;32.70;;;;;;5019020;28;20068;-76
2022/04/18 12:30:11;;;;;;;6.33;4.27;;;24.00;34.60;;;;;;5018871;28;20076;-77
2022/04/18 12:32:38;;;;;;;7.07;4.07;;;24.10;34.80;;;;;;5028068;28;20046;-78
2022/04/18 12:35:06;;;;;;;5.87;4.47;;;24.10;32.50;;;;;;5016624;28;20055;-77
2022/04/18 12:37:32;;;;;;;5.87;4.00;;;23.90;31.70;;;;;;5024707;28;20067;-77
2022/04/18 12:40:12;;;;;;;4.17;3.73;;;23.90;34.40;;;;;;5016884;28;20561;-77
2022/04/18 12:42:38;;;;;;;5.50;4.40;;;24.20;31.90;;;;;;5033093;28;20038;-76
2022/04/18 12:45:04;;;;;;;5.27;4.03;;;24.20;31.50;;;;;;5019536;28;20044;-76
2022/04/18 12:47:32;;;;;;;6.83;4.37;;;24.10;32.60;;;;;;5001326;28;20044;-77
2022/04/18 12:50:08;;;;;;;5.70;4.20;;;24.00;33.00;;;;;;5017341;28;20061;-78
2022/04/18 12:52:34;;;;;;;6.50;4.37;;;24.00;35.20;;;;;;5015181;28;20408;-77
2022/04/18 12:55:06;;;;;;;6.20;4.10;;;24.00;34.20;;;;;;5016931;28;20124;-77
2022/04/18 12:57:33;;;;;;;5.10;4.60;;;24.10;36.60;;;;;;5016959;28;20514;-75
2022/04/18 13:00:08;;;;;;;5.83;4.93;;;24.20;34.20;;;;;;5018510;28;20052;-77
2022/04/18 13:02:34;;;;;;;5.70;4.40;;;24.00;35.20;;;;;;5014772;28;20033;-77
2022/04/18 13:05:00;;;;;;;4.97;4.27;;;24.10;35.80;;;;;;5031989;28;20056;-78
2022/04/18 13:07:27;;;;;;;5.67;4.40;;;24.30;33.70;;;;;;5041194;28;20135;-77
2022/04/18 13:10:01;;;;;;;5.40;4.20;;;24.30;32.80;;;;;;5031420;28;20045;-78
2022/04/18 13:12:33;;;;;;;5.93;4.20;;;23.90;34.60;;;;;;5018159;28;20201;-78
2022/04/18 13:15:02;;;;;;;5.40;4.70;;;23.80;32.60;;;;;;5014870;28;20041;-77
2022/04/18 13:17:29;;;;;;;6.27;4.80;;;23.70;32.90;;;;;;5023766;28;20397;-78